Página principal
METAR-TAF:

METAR-TAF

Aeroportos :

Ilha da Boa Vista, Cabo Verde

Aeroporto Internacional Aristides Pereira

latitude: 16-08-15N, longitude: 22-53-22W, altura: 21 m

Observação actual do tempo

O boletim foi feito há 19 minutos, às 16:00 UTC
Vento 17 kt de nor-nordeste
Temperatura 23°C
Humidade 65%
Pressão 1015 hPa
Visibilidade 10 km ou mais
Nuvens fragmentadasa uma altura de 1500 ft

METAR: GVBA 251600Z 02017KT 9999 BKN015 23/16 Q1015 NOSIG

Hora: 15:19 (16:19 UTC)

Previsão

O boletim foi feito há 5 horas e 19 minutos, às 11:00 UTC
Previsão válida de 25 às 12 UTC a 26 às 18 UTC
Vento 20 kt de nor-nordeste
Visibilidade 10 km ou mais
Nuvens fragmentadasa uma altura de 1500 ft
Temporariamente
de 26 às 02 UTC a 26 às 08 UTC
Vento 10 kt de nor-nordeste
Nuvens dispersasa uma altura de 1500 ft

TAF: GVBA 251100Z 2512/2618 03020KT 9999 BKN015 TEMPO 2602/2608 02010KT SCT015

Observações e previsões do tempo de mais de 4000 aeroportos (mensagens METAR e TAF).

As estações disponíveis são os pontos amarelos e vermelhos sobre o mapa.

Mova o rato sobre o mapa para ver o nome da estação.

Depois clique no ponto para visualizar as observações e previsões meteorológicas.

Para alterar o mapa : clique nos botões verdes com uma cruz preta para aumentar o zoom; no botão verde com uma pitada de zoom; ou nas setas verdes para mapas adjacentes.


METAR-TAF: